Time;durP1;ratioP1;P1;durP2;ratioP2;P2;SDS_P1;SDS_P2;PMS_P1;PMS_P2;Temp;Humidity;BMP_temperature;BMP_pressure;BME280_temperature;BME280_humidity;BME280_pressure;Samples;Min_cycle;Max_cycle;Signal;HPM_P1;HPM_P2
2022/06/01 00:00:54;;;;;;;8.23;6.63;;;10.80;99.90;;;;;;5053309;28;20044;-85
2022/06/01 00:03:20;;;;;;;9.73;7.43;;;11.00;99.90;;;;;;5071002;28;20577;-86
2022/06/01 00:05:46;;;;;;;9.25;6.40;;;10.80;99.90;;;;;;5068862;28;20036;-86
2022/06/01 00:08:12;;;;;;;9.20;6.85;;;10.70;99.90;;;;;;5062466;28;20070;-84
2022/06/01 00:10:38;;;;;;;8.90;6.95;;;11.40;99.90;;;;;;5059449;28;20123;-84
2022/06/01 00:13:04;;;;;;;7.70;6.85;;;10.70;99.90;;;;;;5072973;28;20044;-83
2022/06/01 00:15:30;;;;;;;6.97;6.18;;;10.70;99.90;;;;;;5061751;28;20046;-81
2022/06/01 00:17:58;;;;;;;6.63;6.03;;;10.70;99.90;;;;;;5066255;28;20121;-86
2022/06/01 00:20:25;;;;;;;9.18;5.78;;;12.50;99.90;;;;;;5070875;28;20044;-86
2022/06/01 00:22:50;;;;;;;7.68;7.03;;;10.90;99.90;;;;;;5074714;28;20040;-86
2022/06/01 00:25:17;;;;;;;9.63;7.00;;;10.80;99.90;;;;;;5077424;28;20043;-86
2022/06/01 00:27:42;;;;;;;9.10;5.93;;;12.50;99.90;;;;;;5064143;28;20048;-82
2022/06/01 00:30:11;;;;;;;8.02;7.43;;;12.20;99.90;;;;;;5064527;28;20118;-85
2022/06/01 00:32:37;;;;;;;7.18;6.47;;;10.80;99.90;;;;;;5047772;28;20048;-84
2022/06/01 00:35:06;;;;;;;9.15;6.68;;;10.90;99.90;;;;;;5051038;28;20049;-78
2022/06/01 00:37:31;;;;;;;9.95;7.28;;;10.90;99.90;;;;;;5049843;28;20466;-85
2022/06/01 00:39:57;;;;;;;7.70;7.00;;;12.00;99.90;;;;;;5058619;28;20125;-84
2022/06/01 00:42:27;;;;;;;9.05;6.93;;;11.70;99.90;;;;;;5064687;28;20034;-85
2022/06/01 00:44:53;;;;;;;8.88;7.43;;;10.80;99.90;;;;;;5052119;28;20045;-82
2022/06/01 00:47:21;;;;;;;7.63;6.93;;;10.90;99.90;;;;;;5069489;28;20129;-86
2022/06/01 00:49:52;;;;;;;8.52;6.20;;;10.90;99.90;;;;;;5075905;28;20051;-84
2022/06/01 00:52:35;;;;;;;8.27;7.10;;;10.90;99.90;;;;;;5076764;28;20509;-83
2022/06/01 00:55:04;;;;;;;7.50;6.80;;;10.90;99.90;;;;;;5061032;28;20076;-86
2022/06/01 00:57:30;;;;;;;7.28;6.63;;;10.90;99.90;;;;;;5061725;28;20045;-86
2022/06/01 00:59:57;;;;;;;8.18;7.32;;;11.40;99.90;;;;;;5056315;28;20177;-82
2022/06/01 01:02:23;;;;;;;9.65;7.25;;;10.80;99.90;;;;;;5067884;28;20128;-87
2022/06/01 01:04:49;;;;;;;8.88;7.90;;;10.80;99.90;;;;;;5056610;28;20171;-88
2022/06/01 01:07:15;;;;;;;7.22;6.53;;;10.80;99.90;;;;;;5064778;28;20094;-86
2022/06/01 01:09:41;;;;;;;8.73;7.18;;;12.30;99.90;;;;;;5064102;28;20133;-86
2022/06/01 01:12:10;;;;;;;11.32;7.97;;;11.50;99.90;;;;;;5044966;28;20543;-84
2022/06/01 01:14:40;;;;;;;8.98;7.07;;;10.80;99.90;;;;;;5060332;28;20047;-87
2022/06/01 01:17:06;;;;;;;8.20;7.13;;;10.80;99.90;;;;;;5060924;28;20055;-82
2022/06/01 01:19:52;;;;;;;8.30;7.50;;;10.80;99.90;;;;;;5063974;28;20081;-87
2022/06/01 01:22:46;;;;;;;11.10;7.88;;;12.20;99.90;;;;;;5044975;28;20044;-82
2022/06/01 01:25:29;;;;;;;10.07;7.75;;;10.80;99.90;;;;;;5036022;28;20558;-87
2022/06/01 01:27:58;;;;;;;8.15;7.35;;;10.80;99.90;;;;;;5040420;28;20123;-84
2022/06/01 01:30:35;;;;;;;10.10;7.78;;;10.70;99.90;;;;;;5062782;28;20044;-78
2022/06/01 01:33:09;;;;;;;9.48;8.55;;;10.80;99.90;;;;;;5061104;28;20878;-86
2022/06/01 01:35:35;;;;;;;9.13;8.25;;;10.80;99.90;;;;;;5059003;28;20048;-83
2022/06/01 01:38:06;;;;;;;12.27;8.48;;;10.80;99.90;;;;;;5061692;28;20041;-87
2022/06/01 01:40:32;;;;;;;11.25;8.85;;;12.20;99.90;;;;;;5060121;28;20115;-82
2022/06/01 01:43:01;;;;;;;10.57;9.02;;;12.50;99.90;;;;;;5058027;28;20037;-87
2022/06/01 01:45:31;;;;;;;10.48;8.95;;;10.90;99.90;;;;;;5039662;28;20170;-86
2022/06/01 01:47:57;;;;;;;11.30;8.93;;;12.20;99.90;;;;;;5063705;28;20036;-86
2022/06/01 01:50:24;;;;;;;9.55;8.68;;;10.80;99.90;;;;;;5042172;28;20036;-82
2022/06/01 01:52:51;;;;;;;9.90;8.63;;;10.80;99.90;;;;;;5060910;28;20045;-83
2022/06/01 01:55:49;;;;;;;12.15;9.90;;;10.70;99.90;;;;;;5046023;28;20072;-87
2022/06/01 01:58:28;;;;;;;11.75;10.05;;;10.80;99.90;;;;;;5056236;28;20045;-85
2022/06/01 02:01:00;;;;;;;11.23;10.05;;;12.20;99.90;;;;;;5048161;28;20079;-84
2022/06/01 02:03:43;;;;;;;11.27;9.68;;;10.70;99.90;;;;;;5062367;28;20029;-87
2022/06/01 02:06:38;;;;;;;12.27;11.00;;;10.70;99.90;;;;;;5063569;28;20049;-88
2022/06/01 02:09:08;;;;;;;10.88;9.60;;;10.70;99.90;;;;;;5063138;28;20492;-85
2022/06/01 02:14:35;;;;;;;13.88;10.95;;;11.00;99.90;;;;;;5070492;28;20051;-86
2022/06/01 02:17:23;;;;;;;12.00;10.70;;;10.60;99.90;;;;;;5065808;28;20036;-84
2022/06/01 02:20:03;;;;;;;16.02;10.35;;;10.90;99.90;;;;;;5003862;28;20057;-87
2022/06/01 02:22:28;;;;;;;13.05;11.63;;;10.60;99.90;;;;;;5033202;28;20483;-86
2022/06/01 02:24:54;;;;;;;14.35;11.77;;;10.60;99.90;;;;;;5053396;28;20115;-82
2022/06/01 02:27:21;;;;;;;13.85;11.48;;;10.60;99.90;;;;;;5057990;28;20132;-85
2022/06/01 02:29:52;;;;;;;12.20;11.10;;;10.60;99.90;;;;;;5055402;28;20051;-86
2022/06/01 02:32:19;;;;;;;11.45;10.40;;;10.60;99.90;;;;;;5034114;28;20051;-83
2022/06/01 02:34:46;;;;;;;12.48;11.18;;;10.60;99.90;;;;;;5048566;28;20029;-84
2022/06/01 02:37:14;;;;;;;13.98;12.57;;;11.80;99.90;;;;;;5034806;28;20057;-82
2022/06/01 02:39:44;;;;;;;11.27;10.18;;;10.50;99.90;;;;;;5055600;28;20052;-83
2022/06/01 02:42:28;;;;;;;11.25;10.25;;;10.50;99.90;;;;;;5055456;28;20045;-84
2022/06/01 02:45:02;;;;;;;12.88;11.20;;;10.50;99.90;;;;;;5039431;28;20571;-83
2022/06/01 02:47:32;;;;;;;14.50;12.98;;;10.50;99.90;;;;;;5050589;28;20429;-85
2022/06/01 02:49:59;;;;;;;15.13;11.35;;;10.50;99.90;;;;;;5038339;28;20599;-87
2022/06/01 02:52:25;;;;;;;13.18;11.80;;;11.30;99.90;;;;;;5052653;28;20044;-83
2022/06/01 02:54:52;;;;;;;12.50;11.30;;;10.40;99.90;;;;;;5052350;28;20392;-82
2022/06/01 02:57:18;;;;;;;14.32;12.18;;;10.50;99.90;;;;;;5034801;28;20036;-86
2022/06/01 02:59:45;;;;;;;13.45;12.13;;;10.70;99.90;;;;;;5055914;28;20042;-86
2022/06/01 03:02:10;;;;;;;13.27;11.90;;;10.40;99.90;;;;;;5050104;28;20132;-85
2022/06/01 03:04:38;;;;;;;13.50;11.93;;;10.40;99.90;;;;;;5050795;28;20152;-86
2022/06/01 03:07:05;;;;;;;12.77;11.38;;;10.90;99.90;;;;;;5033787;28;20078;-84
2022/06/01 03:09:31;;;;;;;13.45;12.02;;;10.30;99.90;;;;;;5077541;28;20052;-87
2022/06/01 03:11:57;;;;;;;21.70;15.23;;;11.20;99.90;;;;;;5080842;28;20063;-85
2022/06/01 03:14:23;;;;;;;14.85;13.50;;;11.30;99.90;;;;;;5070851;28;20396;-84
2022/06/01 03:16:48;;;;;;;14.27;12.32;;;10.30;99.90;;;;;;5063434;28;20040;-88
2022/06/01 03:19:14;;;;;;;14.18;12.82;;;10.30;99.90;;;;;;5046511;28;20451;-86
2022/06/01 03:21:40;;;;;;;14.52;13.02;;;10.40;99.90;;;;;;5042156;28;20491;-85
2022/06/01 03:24:06;;;;;;;12.80;11.70;;;11.50;99.90;;;;;;5064203;28;20658;-85
2022/06/01 03:26:32;;;;;;;13.57;12.13;;;10.40;99.90;;;;;;5048621;28;20044;-87
2022/06/01 03:28:59;;;;;;;14.82;12.60;;;11.70;99.90;;;;;;5051966;28;20450;-82
2022/06/01 03:31:25;;;;;;;15.95;13.98;;;10.50;99.90;;;;;;5053996;28;20488;-87
2022/06/01 03:33:50;;;;;;;13.38;12.02;;;10.50;99.90;;;;;;5054081;28;20044;-84
2022/06/01 03:36:16;;;;;;;16.23;13.80;;;10.50;99.90;;;;;;5060840;28;20114;-85
2022/06/01 03:38:42;;;;;;;13.93;12.63;;;10.50;99.90;;;;;;5073875;28;20033;-83
2022/06/01 03:41:07;;;;;;;17.35;13.15;;;10.50;99.90;;;;;;5076299;28;20061;-87
2022/06/01 03:46:17;;;;;;;12.75;11.57;;;11.50;99.90;;;;;;5073267;28;20487;-84
2022/06/01 03:48:43;;;;;;;13.38;11.60;;;10.50;99.90;;;;;;5055945;28;20051;-85
2022/06/01 03:51:09;;;;;;;13.15;11.85;;;10.50;99.90;;;;;;5071087;28;20041;-86
2022/06/01 03:53:34;;;;;;;12.65;11.45;;;10.50;99.90;;;;;;5059561;28;20048;-74
2022/06/01 03:56:02;;;;;;;12.82;11.57;;;10.90;99.90;;;;;;5050873;28;20045;-85
2022/06/01 03:58:28;;;;;;;15.15;13.35;;;10.60;99.90;;;;;;5072293;28;20040;-85
2022/06/01 04:00:54;;;;;;;14.60;13.20;;;11.70;99.90;;;;;;5054006;28;20041;-85
2022/06/01 04:03:19;;;;;;;13.00;11.48;;;11.80;99.90;;;;;;5069744;28;20325;-80
2022/06/01 04:05:45;;;;;;;14.60;12.85;;;10.70;99.90;;;;;;5066002;28;20067;-82
2022/06/01 04:08:11;;;;;;;13.73;12.32;;;10.70;99.90;;;;;;5073528;28;20403;-86
2022/06/01 04:10:40;;;;;;;12.32;11.07;;;10.70;99.90;;;;;;5054978;28;20040;-85
2022/06/01 04:13:05;;;;;;;13.70;12.30;;;10.70;99.90;;;;;;5076337;28;20043;-85
2022/06/01 04:15:31;;;;;;;14.52;13.30;;;10.70;99.90;;;;;;5076350;28;20541;-87
2022/06/01 04:17:57;;;;;;;16.67;13.80;;;10.70;99.90;;;;;;5050963;28;20037;-86
2022/06/01 04:20:23;;;;;;;16.63;14.10;;;10.70;99.90;;;;;;5070271;28;20039;-84
2022/06/01 04:22:48;;;;;;;14.50;12.68;;;10.70;99.90;;;;;;5051924;28;20040;-86
2022/06/01 04:25:17;;;;;;;15.15;13.75;;;10.70;99.90;;;;;;5078057;28;20032;-85
2022/06/01 04:27:43;;;;;;;15.43;13.93;;;12.10;99.90;;;;;;5050954;28;20114;-84
2022/06/01 04:30:12;;;;;;;14.70;13.27;;;10.60;99.90;;;;;;5068146;28;20480;-85
2022/06/01 04:32:38;;;;;;;14.05;12.65;;;10.60;99.90;;;;;;5071399;28;20041;-85
2022/06/01 04:35:06;;;;;;;15.52;14.10;;;10.10;99.90;;;;;;5063501;28;20043;-85
2022/06/01 04:37:33;;;;;;;16.38;14.88;;;10.60;99.90;;;;;;5061325;28;20145;-84
2022/06/01 04:39:58;;;;;;;16.08;14.63;;;10.60;99.90;;;;;;5061191;28;20063;-81
2022/06/01 04:42:24;;;;;;;14.38;13.07;;;10.60;99.90;;;;;;5065587;28;20455;-83
2022/06/01 04:44:50;;;;;;;15.57;13.98;;;10.60;99.90;;;;;;5061010;28;20127;-85
2022/06/01 04:47:18;;;;;;;14.60;13.07;;;11.70;99.90;;;;;;5046067;28;20086;-85
2022/06/01 04:49:46;;;;;;;14.02;12.73;;;11.40;99.90;;;;;;5061934;28;20032;-83
2022/06/01 04:52:12;;;;;;;14.65;13.38;;;10.60;99.90;;;;;;5045788;28;20047;-84
2022/06/01 04:54:37;;;;;;;14.02;12.70;;;10.60;99.90;;;;;;5046207;28;20477;-84
2022/06/01 04:57:03;;;;;;;15.07;13.50;;;10.60;99.90;;;;;;5062569;28;20127;-86
2022/06/01 04:59:29;;;;;;;14.57;13.07;;;10.70;99.90;;;;;;5045929;28;20757;-85
2022/06/01 05:01:55;;;;;;;14.35;12.95;;;10.70;99.90;;;;;;5061759;28;20044;-80
2022/06/01 05:04:20;;;;;;;15.30;13.73;;;10.70;99.90;;;;;;5060678;28;20047;-87
2022/06/01 05:06:46;;;;;;;14.93;13.48;;;11.50;99.90;;;;;;5044706;28;20036;-86
2022/06/01 05:09:12;;;;;;;14.48;12.98;;;11.00;99.90;;;;;;5053366;28;20445;-80
2022/06/01 05:11:38;;;;;;;18.17;14.85;;;10.70;99.90;;;;;;5054406;28;20048;-82
2022/06/01 05:14:03;;;;;;;15.25;13.65;;;10.70;99.90;;;;;;5056024;28;20423;-85
2022/06/01 05:16:29;;;;;;;15.13;13.52;;;10.70;99.90;;;;;;5073702;28;20040;-87
2022/06/01 05:18:55;;;;;;;15.55;14.05;;;11.80;99.90;;;;;;5073619;28;20463;-78
2022/06/01 05:21:21;;;;;;;17.30;15.52;;;10.90;99.90;;;;;;5068583;28;20051;-77
2022/06/01 05:23:46;;;;;;;15.88;14.23;;;10.70;99.90;;;;;;5072245;28;20044;-78
2022/06/01 05:26:12;;;;;;;16.85;15.35;;;12.00;99.90;;;;;;5069640;28;20391;-79
2022/06/01 05:28:38;;;;;;;15.63;14.13;;;11.30;99.90;;;;;;5064381;28;20098;-80
2022/06/01 05:31:07;;;;;;;17.02;15.32;;;10.80;99.90;;;;;;5066161;28;20089;-80
2022/06/01 05:33:32;;;;;;;16.85;15.10;;;11.50;99.90;;;;;;5061540;28;20377;-76
2022/06/01 05:35:58;;;;;;;16.85;15.32;;;10.80;99.90;;;;;;5067212;28;20066;-79
2022/06/01 05:38:24;;;;;;;17.70;16.00;;;10.90;99.90;;;;;;5069684;28;20029;-81
2022/06/01 05:40:50;;;;;;;16.80;15.02;;;11.00;99.90;;;;;;5053421;28;20040;-79
2022/06/01 05:43:22;;;;;;;17.40;15.70;;;12.20;99.90;;;;;;4921098;28;10001280;-80
2022/06/01 05:45:48;;;;;;;16.88;15.27;;;11.00;99.90;;;;;;5076880;28;20260;-81
2022/06/01 05:48:17;;;;;;;16.85;15.35;;;10.10;99.90;;;;;;5072472;28;20033;-85
2022/06/01 05:50:42;;;;;;;15.35;13.85;;;11.00;99.90;;;;;;5059062;28;20052;-88
2022/06/01 05:53:08;;;;;;;16.63;14.95;;;11.30;99.90;;;;;;5077635;28;20040;-88
2022/06/01 05:55:35;;;;;;;13.88;12.48;;;11.50;99.90;;;;;;5050980;28;20044;-80
2022/06/01 05:58:02;;;;;;;14.38;12.93;;;11.20;99.90;;;;;;5056889;28;20047;-85
2022/06/01 06:00:27;;;;;;;12.93;11.75;;;11.20;99.90;;;;;;5062147;28;20530;-80
2022/06/01 06:02:53;;;;;;;11.70;10.60;;;11.40;99.90;;;;;;5073788;28;20079;-84
2022/06/01 06:08:03;;;;;;;12.68;11.57;;;11.50;99.90;;;;;;5071388;28;20635;-83
2022/06/01 06:10:29;;;;;;;13.80;12.30;;;11.50;99.90;;;;;;5051630;28;20048;-85
2022/06/01 06:12:57;;;;;;;13.00;11.18;;;11.60;99.90;;;;;;5060928;28;20056;-95
2022/06/01 06:15:23;;;;;;;13.07;11.60;;;11.60;99.90;;;;;;5077477;28;20039;-81
2022/06/01 06:17:49;;;;;;;15.90;11.45;;;11.70;99.90;;;;;;5050794;28;20048;-87
2022/06/01 06:20:14;;;;;;;9.50;8.43;;;11.50;99.90;;;;;;5043558;28;20384;-80
2022/06/01 06:22:41;;;;;;;11.13;8.05;;;13.00;99.90;;;;;;5075093;28;20556;-86
2022/06/01 06:25:08;;;;;;;8.02;7.32;;;12.80;99.90;;;;;;5063131;28;20043;-92
2022/06/01 06:27:33;;;;;;;11.15;8.80;;;10.10;99.90;;;;;;5058446;28;20055;-90
2022/06/01 06:29:59;;;;;;;8.02;7.30;;;11.40;99.90;;;;;;5073678;28;20044;-91
2022/06/01 06:32:25;;;;;;;8.68;7.30;;;11.30;99.90;;;;;;5074970;28;20098;-88
2022/06/01 06:34:51;;;;;;;8.18;6.95;;;11.40;99.90;;;;;;5071915;28;20128;-88
2022/06/01 06:37:18;;;;;;;7.38;6.50;;;11.00;99.90;;;;;;5076066;28;20048;-88
2022/06/01 06:39:43;;;;;;;4.90;3.75;;;10.80;99.90;;;;;;5077569;28;20047;-87
2022/06/01 06:42:09;;;;;;;4.18;3.70;;;12.00;99.90;;;;;;5075967;28;20107;-84
2022/06/01 06:44:36;;;;;;;4.13;3.78;;;11.90;99.90;;;;;;5077429;28;20091;-83
2022/06/01 06:47:03;;;;;;;5.10;4.40;;;10.70;99.90;;;;;;5073086;28;20077;-84
2022/06/01 06:49:28;;;;;;;4.75;4.35;;;10.70;99.90;;;;;;5070435;28;20051;-91
2022/06/01 06:51:54;;;;;;;5.32;4.93;;;10.70;99.90;;;;;;5077290;28;20048;-93
2022/06/01 06:54:20;;;;;;;11.68;7.35;;;12.20;99.90;;;;;;5083967;28;20051;-86
2022/06/01 06:56:46;;;;;;;6.50;5.90;;;10.70;99.90;;;;;;5061027;28;20067;-89
2022/06/01 06:59:16;;;;;;;7.15;6.40;;;12.30;99.90;;;;;;5067022;28;20039;-89
2022/06/01 07:01:42;;;;;;;8.40;7.70;;;11.60;99.90;;;;;;5054637;28;20079;-82
2022/06/01 07:04:08;;;;;;;12.82;7.80;;;12.10;99.90;;;;;;5077337;28;20045;-88
2022/06/01 07:06:34;;;;;;;7.85;7.05;;;12.10;99.90;;;;;;5076890;28;20051;-85
2022/06/01 07:09:00;;;;;;;7.72;6.97;;;10.80;99.90;;;;;;5079253;28;20053;-83
2022/06/01 07:11:28;;;;;;;7.80;7.10;;;11.00;99.90;;;;;;5086420;28;20041;-87
2022/06/01 07:13:55;;;;;;;8.60;7.80;;;10.90;99.90;;;;;;5075318;28;20040;-90
2022/06/01 07:16:24;;;;;;;8.98;8.00;;;12.00;99.90;;;;;;5063276;28;20055;-90
2022/06/01 07:18:51;;;;;;;9.32;8.32;;;10.90;99.90;;;;;;5078186;28;20060;-82
2022/06/01 07:21:19;;;;;;;8.80;8.00;;;10.20;99.90;;;;;;5072666;28;20051;-88
2022/06/01 07:23:46;;;;;;;10.05;9.07;;;11.00;99.90;;;;;;5077275;28;20071;-91
2022/06/01 07:26:18;;;;;;;10.40;9.38;;;12.50;99.90;;;;;;5074499;28;20133;-92
2022/06/01 07:28:44;;;;;;;11.55;10.38;;;12.70;99.90;;;;;;5082455;28;20044;-88
2022/06/01 07:31:10;;;;;;;11.07;10.07;;;10.40;99.90;;;;;;5079329;28;20197;-89
2022/06/01 07:33:36;;;;;;;11.50;10.23;;;11.50;99.90;;;;;;5058004;28;20551;-79
2022/06/01 07:36:05;;;;;;;13.50;12.10;;;11.40;99.90;;;;;;5081117;28;20032;-91
2022/06/01 07:44:08;;;;;;;13.85;12.55;;;11.70;99.90;;;;;;5076024;28;20044;-89
2022/06/01 07:46:35;;;;;;;14.73;11.95;;;11.80;99.90;;;;;;5064274;28;20040;-80
2022/06/01 07:49:01;;;;;;;13.35;12.00;;;13.20;99.90;;;;;;5076184;28;20032;-75
2022/06/01 07:51:26;;;;;;;13.23;11.73;;;11.90;99.90;;;;;;5060635;28;20546;-75
2022/06/01 07:53:52;;;;;;;13.00;11.63;;;12.60;99.90;;;;;;5075620;28;20068;-76
2022/06/01 07:56:18;;;;;;;20.15;14.05;;;13.10;99.90;;;;;;5071275;28;20086;-75
2022/06/01 07:58:44;;;;;;;13.30;12.10;;;11.90;99.90;;;;;;5079635;28;20063;-77
2022/06/01 08:01:10;;;;;;;15.10;13.07;;;12.40;99.90;;;;;;5077052;28;20082;-81
2022/06/01 08:03:36;;;;;;;13.55;12.02;;;12.00;99.90;;;;;;5077939;28;20028;-76
2022/06/01 08:06:02;;;;;;;11.55;10.35;;;12.00;99.90;;;;;;5073685;28;20464;-81
2022/06/01 08:08:27;;;;;;;12.45;11.32;;;12.10;99.90;;;;;;5065802;28;20044;-84
2022/06/01 08:10:53;;;;;;;12.70;11.65;;;12.90;99.90;;;;;;5059468;28;20048;-83
2022/06/01 08:13:20;;;;;;;13.25;12.13;;;13.60;99.90;;;;;;5084377;28;20384;-79
2022/06/01 08:15:49;;;;;;;11.45;10.38;;;12.30;99.90;;;;;;5058947;28;20036;-85
2022/06/01 08:18:18;;;;;;;10.90;9.95;;;12.30;99.90;;;;;;5076314;28;20123;-85
2022/06/01 08:20:44;;;;;;;10.82;6.20;;;13.50;99.90;;;;;;5053941;28;20040;-75
2022/06/01 08:23:10;;;;;;;8.93;8.02;;;12.30;99.90;;;;;;5069932;28;20036;-83
2022/06/01 08:25:37;;;;;;;6.28;5.78;;;12.30;99.90;;;;;;5060889;28;20048;-87
2022/06/01 08:28:04;;;;;;;8.50;7.70;;;12.30;99.90;;;;;;5082635;28;20075;-82
2022/06/01 08:30:31;;;;;;;11.02;8.63;;;12.30;99.90;;;;;;5051938;28;20361;-81
2022/06/01 08:32:58;;;;;;;10.48;9.60;;;12.80;99.90;;;;;;5080551;28;20036;-82
2022/06/01 08:35:31;;;;;;;11.95;10.93;;;12.30;99.90;;;;;;5078246;28;20039;-88
2022/06/01 08:37:58;;;;;;;12.40;11.20;;;12.30;99.90;;;;;;5072888;28;20122;-86
2022/06/01 08:40:29;;;;;;;12.60;11.07;;;12.30;99.90;;;;;;5066058;28;20043;-85
2022/06/01 08:43:04;;;;;;;12.57;11.23;;;12.30;99.90;;;;;;5071078;28;20040;-86
2022/06/01 08:45:30;;;;;;;12.40;11.23;;;12.30;99.90;;;;;;5066801;28;20487;-76
2022/06/01 08:47:56;;;;;;;11.09;10.05;;;13.20;99.90;;;;;;4727994;28;10000498;-74
2022/06/01 08:50:29;;;;;;;10.65;9.73;;;12.40;99.90;;;;;;5070797;28;20468;-84
2022/06/01 08:53:00;;;;;;;12.65;9.27;;;12.40;99.90;;;;;;5060074;28;20052;-87
2022/06/01 08:55:33;;;;;;;6.70;6.18;;;12.50;99.90;;;;;;5076157;28;20480;-88
2022/06/01 08:58:08;;;;;;;5.70;5.30;;;12.60;99.90;;;;;;5062174;28;20488;-78
2022/06/01 09:00:42;;;;;;;6.57;5.95;;;13.60;99.90;;;;;;5078578;28;20043;-91
2022/06/01 09:03:19;;;;;;;8.57;5.70;;;12.60;99.90;;;;;;5063528;28;20491;-90
2022/06/01 09:05:50;;;;;;;10.40;8.57;;;12.60;99.90;;;;;;5061310;28;20032;-89
2022/06/01 09:08:37;;;;;;;9.18;8.48;;;13.50;99.90;;;;;;5061232;28;20144;-87
2022/06/01 09:11:11;;;;;;;9.27;8.38;;;12.50;99.90;;;;;;5053476;28;20040;-88
2022/06/01 09:13:44;;;;;;;8.05;7.35;;;12.60;99.90;;;;;;5059736;28;20040;-88
2022/06/01 09:16:30;;;;;;;9.48;8.68;;;12.40;99.90;;;;;;5079662;28;20048;-83
2022/06/01 09:18:57;;;;;;;8.85;8.02;;;13.80;99.90;;;;;;5053180;28;20052;-89
2022/06/01 09:24:21;;;;;;;10.38;8.73;;;12.40;99.90;;;;;;5081565;28;20043;-89
2022/06/01 09:27:05;;;;;;;9.90;8.88;;;12.40;99.90;;;;;;5075357;28;20492;-90
2022/06/01 09:29:43;;;;;;;9.63;8.73;;;12.40;99.90;;;;;;5062485;28;20044;-90
2022/06/01 09:32:24;;;;;;;9.52;8.63;;;12.40;99.90;;;;;;5059043;28;20043;-89
2022/06/01 09:34:50;;;;;;;9.23;8.50;;;13.10;99.90;;;;;;5064795;28;20486;-87
2022/06/01 09:37:29;;;;;;;9.88;8.98;;;12.40;99.90;;;;;;5079880;28;20039;-88
2022/06/01 09:40:01;;;;;;;10.07;8.25;;;12.40;99.90;;;;;;5048174;28;20679;-85
2022/06/01 09:42:34;;;;;;;10.52;8.73;;;13.70;99.90;;;;;;5076090;28;20036;-88
2022/06/01 09:45:04;;;;;;;7.65;6.95;;;13.30;99.90;;;;;;5062159;28;20072;-84
2022/06/01 09:47:34;;;;;;;8.90;8.10;;;12.70;99.90;;;;;;5059872;28;20050;-91
2022/06/01 09:50:01;;;;;;;8.90;7.00;;;12.70;99.90;;;;;;5060975;28;20047;-81
2022/06/01 09:52:34;;;;;;;10.27;8.98;;;12.90;99.90;;;;;;5082680;28;20054;-79
2022/06/01 09:55:21;;;;;;;9.43;8.25;;;13.00;99.90;;;;;;5068180;28;20090;-78
2022/06/01 09:58:09;;;;;;;7.80;7.15;;;13.20;99.90;;;;;;5063747;28;20917;-78
2022/06/01 10:06:24;;;;;;;4.68;4.28;;;12.60;99.90;;;;;;5079653;28;20064;-79
2022/06/01 10:08:58;;;;;;;4.25;3.90;;;13.60;99.90;;;;;;5058759;28;20048;-78
2022/06/01 10:11:30;;;;;;;4.63;4.15;;;13.90;99.90;;;;;;5075281;28;20047;-78
2022/06/01 10:14:14;;;;;;;6.57;6.05;;;14.50;99.90;;;;;;5066091;28;20044;-76
2022/06/01 10:16:52;;;;;;;5.75;5.32;;;13.60;99.90;;;;;;5076680;28;20037;-79
2022/06/01 10:19:26;;;;;;;6.40;5.80;;;13.50;99.90;;;;;;5080417;28;20040;-79
2022/06/01 10:22:19;;;;;;;5.30;4.90;;;14.70;99.90;;;;;;5070974;28;20037;-78
2022/06/01 10:25:06;;;;;;;5.25;4.70;;;13.50;99.90;;;;;;5081331;28;20067;-94
2022/06/01 10:27:40;;;;;;;5.63;5.15;;;13.50;99.90;;;;;;5078370;28;20048;-84
2022/06/01 10:30:23;;;;;;;5.13;4.68;;;14.90;99.90;;;;;;5074090;28;20487;-83
2022/06/01 10:33:10;;;;;;;6.10;5.70;;;13.60;99.90;;;;;;5080250;28;20045;-87
2022/06/01 10:35:44;;;;;;;5.10;4.35;;;13.50;99.90;;;;;;5063883;28;20041;-75
2022/06/01 10:38:28;;;;;;;3.97;3.67;;;13.50;99.90;;;;;;5065764;28;20127;-85
2022/06/01 10:41:06;;;;;;;3.22;3.03;;;13.50;99.90;;;;;;5065381;28;20173;-84
2022/06/01 10:43:43;;;;;;;3.53;3.03;;;14.50;99.90;;;;;;5080557;28;20044;-79
2022/06/01 10:46:22;;;;;;;5.32;4.15;;;13.60;99.90;;;;;;5073373;28;20441;-85
2022/06/01 10:49:15;;;;;;;6.82;3.95;;;13.50;99.90;;;;;;5078774;28;20193;-81
2022/06/01 10:51:41;;;;;;;2.72;2.60;;;13.40;99.90;;;;;;5095240;28;20090;-77
2022/06/01 10:54:18;;;;;;;4.13;3.80;;;14.50;99.90;;;;;;5069172;28;20079;-85
2022/06/01 10:56:44;;;;;;;3.23;3.03;;;13.10;99.90;;;;;;4375661;28;10000688;-85
2022/06/01 10:59:14;;;;;;;11.98;4.30;;;13.00;99.90;;;;;;5084996;28;20298;-85
2022/06/01 11:02:11;;;;;;;3.75;3.35;;;13.10;99.90;;;;;;5074268;28;20051;-81
2022/06/01 11:04:43;;;;;;;3.70;3.42;;;12.80;99.90;;;;;;5057282;28;20058;-85
2022/06/01 11:07:24;;;;;;;3.65;3.30;;;12.80;99.90;;;;;;5076450;28;20575;-83
2022/06/01 11:10:22;;;;;;;4.07;3.63;;;12.70;99.90;;;;;;5072891;28;20073;-79
2022/06/01 11:12:57;;;;;;;3.95;3.35;;;12.70;99.90;;;;;;5019453;28;20180;-83
2022/06/01 11:15:34;;;;;;;3.10;2.17;;;13.50;99.90;;;;;;5063704;28;20048;-81
2022/06/01 11:18:22;;;;;;;3.35;1.88;;;12.60;99.90;;;;;;5076818;28;20043;-79
2022/06/01 11:21:02;;;;;;;1.92;1.83;;;12.70;99.90;;;;;;5071162;28;20044;-79
2022/06/01 11:24:15;;;;;;;1.58;1.23;;;12.60;99.90;;;;;;5072141;28;20084;-80
2022/06/01 11:27:09;;;;;;;2.28;2.13;;;12.50;99.90;;;;;;5006080;28;20052;-78
2022/06/01 11:29:57;;;;;;;3.75;3.45;;;12.50;99.90;;;;;;5050095;28;20040;-79
2022/06/01 11:32:44;;;;;;;4.47;3.53;;;12.50;99.90;;;;;;5062558;28;20129;-81
2022/06/01 11:35:19;;;;;;;4.03;3.53;;;12.50;99.90;;;;;;5068435;28;20123;-79
2022/06/01 11:37:52;;;;;;;7.20;4.30;;;12.60;99.90;;;;;;5065955;28;20094;-78
2022/06/01 11:40:30;;;;;;;7.07;4.40;;;12.60;99.90;;;;;;5058552;28;20048;-79
2022/06/01 11:43:06;;;;;;;4.28;3.85;;;12.80;99.90;;;;;;5055718;28;20096;-81
2022/06/01 11:45:35;;;;;;;3.05;2.85;;;12.80;99.90;;;;;;5066098;28;20048;-80
2022/06/01 11:48:08;;;;;;;2.63;2.42;;;12.90;99.90;;;;;;5061184;28;20075;-77
2022/06/01 11:50:48;;;;;;;2.70;2.50;;;13.00;99.90;;;;;;5050066;28;20093;-79
2022/06/01 11:57:01;;;;;;;13.65;5.55;;;13.20;99.90;;;;;;5070582;28;20043;-79
2022/06/01 11:59:45;;;;;;;3.97;3.13;;;13.40;99.90;;;;;;5075413;28;20093;-79
2022/06/01 12:02:41;;;;;;;3.65;3.35;;;13.80;99.90;;;;;;5065385;28;20462;-81
2022/06/01 12:05:23;;;;;;;2.45;2.25;;;13.90;99.90;;;;;;5065326;28;20063;-86
2022/06/01 12:07:57;;;;;;;2.90;2.17;;;14.20;99.90;;;;;;5063327;28;20387;-80
2022/06/01 12:10:28;;;;;;;2.63;2.42;;;14.30;99.90;;;;;;5045214;28;20591;-84
2022/06/01 12:13:04;;;;;;;2.30;2.10;;;14.30;99.90;;;;;;5067122;28;20082;-84
2022/06/01 12:15:42;;;;;;;2.88;2.40;;;14.30;99.90;;;;;;5067275;28;20131;-84
2022/06/01 12:18:11;;;;;;;1.50;0.65;;;14.30;99.90;;;;;;5054241;28;20439;-79
2022/06/01 12:20:36;;;;;;;1.80;0.45;;;14.20;99.90;;;;;;5067732;28;20056;-80
2022/06/01 12:29:09;;;;;;;2.58;0.57;;;13.60;99.90;;;;;;5069536;28;20932;-79
2022/06/01 12:31:59;;;;;;;1.48;0.45;;;13.30;99.90;;;;;;5070654;28;20388;-79
2022/06/01 12:34:32;;;;;;;3.65;0.50;;;13.00;99.90;;;;;;5073474;28;20071;-79
2022/06/01 12:37:22;;;;;;;2.65;0.70;;;12.70;99.90;;;;;;5075436;28;20080;-80
2022/06/01 12:39:56;;;;;;;1.30;0.60;;;12.40;99.90;;;;;;5053108;28;20049;-80
2022/06/01 12:42:38;;;;;;;0.90;0.40;;;12.30;99.90;;;;;;5084708;28;20109;-79
2022/06/01 12:45:12;;;;;;;1.02;0.30;;;12.10;99.90;;;;;;5080021;28;20036;-80
2022/06/01 12:48:01;;;;;;;2.53;0.55;;;12.00;99.90;;;;;;5054762;28;20045;-80
2022/06/01 12:50:33;;;;;;;2.97;0.60;;;11.80;99.90;;;;;;4718516;28;9999797;-81
2022/06/01 12:53:45;;;;;;;1.25;0.30;;;11.80;99.90;;;;;;5068550;28;20554;-81
2022/06/01 12:56:19;;;;;;;1.52;0.50;;;11.70;99.90;;;;;;5063778;28;20078;-82
2022/06/01 12:58:48;;;;;;;1.30;0.30;;;11.60;99.90;;;;;;5075936;28;20493;-86
2022/06/01 13:01:17;;;;;;;0.60;0.40;;;11.60;99.90;;;;;;5071522;28;20078;-81
2022/06/01 13:03:49;;;;;;;3.20;0.28;;;11.60;99.90;;;;;;5050350;28;20047;-81
2022/06/01 13:06:23;;;;;;;0.82;0.60;;;11.60;99.90;;;;;;5069552;28;20047;-81
2022/06/01 13:09:00;;;;;;;;;;;12.80;99.90;;;;;;5070728;28;20055;-81
2022/06/01 13:11:30;;;;;;;0.38;0.38;;;11.40;99.90;;;;;;5084015;28;19951;-81
2022/06/01 13:14:01;;;;;;;1.85;0.63;;;11.90;99.90;;;;;;5069018;28;20043;-81
2022/06/01 13:16:45;;;;;;;1.27;0.63;;;11.60;99.90;;;;;;5051774;28;20051;-81
2022/06/01 13:19:31;;;;;;;1.17;0.80;;;11.60;99.90;;;;;;5072159;28;20036;-82
2022/06/01 13:22:11;;;;;;;2.78;0.77;;;11.60;99.90;;;;;;5058648;28;20450;-81
2022/06/01 13:24:54;;;;;;;1.02;0.80;;;11.60;99.90;;;;;;5050540;28;20574;-82
2022/06/01 13:27:20;;;;;;;2.35;2.15;;;11.70;99.90;;;;;;5067338;28;20060;-81
2022/06/01 13:29:49;;;;;;;1.40;0.88;;;11.80;99.90;;;;;;5054267;28;20044;-80